Time;durP1;ratioP1;P1;durP2;ratioP2;P2;SDS_P1;SDS_P2;PMS_P1;PMS_P2;Temp;Humidity;BMP_temperature;BMP_pressure;BME280_temperature;BME280_humidity;BME280_pressure;Samples;Min_cycle;Max_cycle;Signal;HPM_P1;HPM_P2
2022/08/17 00:00:40;;;;;;;53.38;42.72;;;;;;;21.58;85.02;101115.97;5084129;28;20078;-68
2022/08/17 00:03:24;;;;;;;49.97;41.75;;;;;;;21.65;84.96;101121.75;5066180;28;20024;-70
2022/08/17 00:06:03;;;;;;;43.88;37.67;;;;;;;21.65;85.29;101111.03;5063862;28;20647;-69
2022/08/17 00:08:31;;;;;;;47.22;40.92;;;;;;;21.68;85.53;101107.25;5063245;28;20024;-68
2022/08/17 00:10:57;;;;;;;48.75;39.05;;;;;;;21.70;85.83;101108.81;5062995;28;20033;-69
2022/08/17 00:13:29;;;;;;;55.47;41.20;;;;;;;21.75;85.52;101104.91;5064012;28;20020;-68
2022/08/17 00:16:04;;;;;;;56.05;45.15;;;;;;;21.71;85.99;101107.84;5063878;28;20024;-69
2022/08/17 00:18:30;;;;;;;53.63;42.65;;;;;;;21.78;85.95;101104.72;5063526;28;20122;-69
2022/08/17 00:20:57;;;;;;;53.92;44.58;;;;;;;21.88;85.42;101100.34;5066546;28;20048;-69
2022/08/17 00:23:23;;;;;;;48.67;43.10;;;;;;;21.98;85.21;101102.31;5068077;28;20017;-70
2022/08/17 00:25:49;;;;;;;52.35;44.70;;;;;;;22.03;85.16;101108.19;5068026;28;20110;-69
2022/08/17 00:28:15;;;;;;;54.63;44.65;;;;;;;22.01;85.47;101107.44;5049687;28;20032;-69
2022/08/17 00:30:45;;;;;;;46.67;38.55;;;;;;;22.09;84.94;101107.66;5067442;28;20107;-70
2022/08/17 00:33:14;;;;;;;51.28;42.08;;;;;;;22.15;84.63;101091.09;5067425;28;20312;-68
2022/08/17 00:35:39;;;;;;;;;;;;;;;22.01;85.16;101094.03;5049686;28;20078;-68
2022/08/17 00:38:08;;;;;;;46.28;39.03;;;;;;;22.02;85.45;101095.72;5067837;28;19917;-68
2022/08/17 00:40:33;;;;;;;;;;;;;;;22.03;85.21;101092.09;5067995;28;20536;-68
2022/08/17 00:43:09;;;;;;;48.22;40.63;;;;;;;22.04;85.16;101089.28;5067667;28;19909;-67
2022/08/17 00:45:34;;;;;;;48.50;40.97;;;;;;;22.05;85.08;101087.44;5066597;28;20044;-67
2022/08/17 00:47:59;;;;;;;52.55;42.28;;;;;;;21.99;85.66;101088.78;5067653;28;20053;-68
2022/08/17 00:50:24;;;;;;;55.13;42.08;;;;;;;21.94;85.98;101086.44;5065332;28;20137;-67
2022/08/17 00:52:55;;;;;;;38.58;32.22;;;;;;;22.01;86.38;101083.28;5067943;28;20108;-67
2022/08/17 00:55:21;;;;;;;49.58;40.28;;;;;;;22.05;85.65;101080.25;5068043;28;20036;-68
2022/08/17 00:57:50;;;;;;;48.75;38.10;;;;;;;22.05;85.67;101077.56;5067260;28;20032;-68
2022/08/17 01:00:25;;;;;;;46.35;38.72;;;;;;;22.04;85.66;101067.81;5067158;28;20031;-69
2022/08/17 01:02:54;;;;;;;43.65;36.10;;;;;;;22.08;85.36;101063.03;5050333;28;20032;-68
2022/08/17 01:05:22;;;;;;;43.08;36.80;;;;;;;22.09;85.14;101059.38;5048244;28;20063;-68
2022/08/17 01:07:49;;;;;;;40.13;33.58;;;;;;;22.09;85.11;101054.88;5067067;28;20017;-68
2022/08/17 01:10:15;;;;;;;44.70;36.28;;;;;;;22.04;85.20;101057.09;5067294;28;20054;-68
2022/08/17 01:12:41;;;;;;;42.17;33.88;;;;;;;22.06;84.65;101073.91;5066338;28;20066;-67
2022/08/17 01:15:06;;;;;;;42.88;33.35;;;;;;;22.03;84.48;101068.78;5091591;22;20052;-68
2022/08/17 01:17:33;;;;;;;36.97;31.00;;;;;;;22.09;84.30;101076.34;5086767;28;20024;-67
2022/08/17 01:19:58;;;;;;;36.60;30.58;;;;;;;22.06;84.59;101076.59;5085909;28;20658;-67
2022/08/17 01:22:24;;;;;;;39.90;31.25;;;;;;;22.13;83.86;101082.31;5069054;28;20031;-64
2022/08/17 01:24:55;;;;;;;37.13;33.13;;;;;;;22.18;84.02;101081.94;5087399;28;20036;-67
2022/08/17 01:27:21;;;;;;;37.55;29.25;;;;;;;22.10;84.14;101079.88;5087523;28;20111;-69
2022/08/17 01:29:50;;;;;;;37.20;29.92;;;;;;;22.10;84.23;101082.56;5068886;28;20111;-68
2022/08/17 01:32:16;;;;;;;33.92;28.85;;;;;;;22.12;84.29;101088.66;5067346;28;20148;-67
2022/08/17 01:34:42;;;;;;;32.80;28.15;;;;;;;22.21;83.90;101087.06;5086015;28;20385;-70
2022/08/17 01:37:08;;;;;;;31.42;27.52;;;;;;;22.19;83.76;101089.88;5085896;28;20024;-69
2022/08/17 01:39:44;;;;;;;32.38;28.17;;;;;;;22.23;83.37;101093.16;5086387;28;20028;-68
2022/08/17 01:42:15;;;;;;;36.80;29.35;;;;;;;22.31;83.24;101087.19;5087144;28;20062;-71
2022/08/17 01:44:40;;;;;;;33.67;27.33;;;;;;;22.31;83.11;101084.50;5085851;28;20032;-68
2022/08/17 01:47:06;;;;;;;37.03;29.40;;;;;;;22.27;83.10;101088.44;5086941;28;20081;-68
2022/08/17 01:49:31;;;;;;;38.42;29.38;;;;;;;22.29;83.00;101097.19;5085346;28;20553;-68
2022/08/17 01:51:57;;;;;;;32.00;28.45;;;;;;;22.21;83.12;101117.44;5086519;28;20126;-68
2022/08/17 01:54:23;;;;;;;33.55;28.83;;;;;;;22.19;83.08;101140.00;5069143;28;20027;-70
2022/08/17 01:56:50;;;;;;;33.45;27.15;;;;;;;22.09;82.97;101162.19;5068419;28;20028;-67
2022/08/17 01:59:17;;;;;;;42.88;34.92;;;;;;;22.16;83.62;101162.59;5086519;28;20028;-69
2022/08/17 02:01:42;;;;;;;47.88;39.78;;;;;;;22.05;84.46;101163.41;5084849;28;20028;-67
2022/08/17 02:04:07;;;;;;;43.40;35.83;;;;;;;22.17;84.04;101172.34;5083917;28;20043;-69
2022/08/17 02:06:35;;;;;;;40.33;33.15;;;;;;;22.30;83.12;101164.16;5084516;28;20508;-68
2022/08/17 02:09:01;;;;;;;36.60;30.25;;;;;;;22.50;82.39;101169.78;5085183;28;20035;-68
2022/08/17 02:11:27;;;;;;;34.20;25.65;;;;;;;22.62;80.90;101167.97;5084517;28;20789;-68
2022/08/17 02:13:52;;;;;;;38.55;30.40;;;;;;;22.77;80.26;101176.63;5086171;28;20078;-67
2022/08/17 02:16:18;;;;;;;40.70;32.47;;;;;;;22.63;79.78;101191.16;5086354;28;20052;-66
2022/08/17 02:18:43;;;;;;;38.42;29.65;;;;;;;22.61;79.10;101182.41;5085495;28;20478;-69
2022/08/17 02:21:09;;;;;;;43.05;26.27;;;;;;;22.38;79.77;101179.66;5051179;28;20051;-68
2022/08/17 02:23:39;;;;;;;34.58;24.52;;;;;;;22.19;80.59;101183.78;5084906;28;20401;-67
2022/08/17 02:26:05;;;;;;;36.45;25.52;;;;;;;21.88;82.09;101174.59;5085921;28;20107;-67
2022/08/17 02:28:30;;;;;;;33.00;22.60;;;;;;;21.65;82.75;101182.56;5084306;28;20107;-70
2022/08/17 02:30:56;;;;;;;33.55;21.75;;;;;;;21.55;83.02;101180.56;5084232;28;20547;-69
2022/08/17 02:33:22;;;;;;;35.22;21.42;;;;;;;21.54;83.15;101199.44;5083959;28;20107;-68
2022/08/17 02:35:47;;;;;;;31.35;21.05;;;;;;;21.57;83.60;101200.06;5084330;28;20020;-69
2022/08/17 02:38:13;;;;;;;23.13;19.33;;;;;;;21.39;84.21;101212.16;5084957;28;20036;-68
2022/08/17 02:40:39;;;;;;;25.20;19.50;;;;;;;21.37;84.62;101211.44;5085146;28;20040;-69
2022/08/17 02:43:05;;;;;;;25.35;18.55;;;;;;;21.41;84.51;101196.81;5084701;28;20375;-69
2022/08/17 02:45:31;;;;;;;27.92;19.95;;;;;;;21.28;85.07;101196.91;5085319;28;20050;-70
2022/08/17 02:47:56;;;;;;;31.20;18.63;;;;;;;21.21;85.04;101200.03;5084113;28;20063;-69
2022/08/17 02:50:23;;;;;;;37.05;18.88;;;;;;;21.32;85.24;101201.91;5086100;28;20024;-70
2022/08/17 02:52:50;;;;;;;28.98;17.95;;;;;;;21.24;86.01;101192.72;5084176;28;20042;-69
2022/08/17 02:55:24;;;;;;;31.15;18.15;;;;;;;20.91;88.08;101185.22;5084743;28;20060;-70
2022/08/17 02:57:50;;;;;;;31.35;20.17;;;;;;;20.95;88.39;101183.19;5084900;28;20051;-69
2022/08/17 03:00:36;;;;;;;26.90;16.65;;;;;;;21.01;88.32;101171.16;5084923;28;20063;-68
2022/08/17 03:03:03;;;;;;;34.38;17.77;;;;;;;20.97;88.63;101167.84;5084716;28;20048;-68
2022/08/17 03:05:30;;;;;;;31.35;17.77;;;;;;;20.88;89.82;101163.13;5084898;28;20035;-68
2022/08/17 03:07:56;;;;;;;36.88;16.20;;;;;;;20.99;89.11;101159.69;5085327;28;20031;-66
2022/08/17 03:10:23;;;;;;;29.80;17.58;;;;;;;20.92;89.79;101160.16;5084339;28;20024;-66
2022/08/17 03:12:49;;;;;;;30.92;18.40;;;;;;;20.80;90.32;101155.66;5085425;28;20031;-67
2022/08/17 03:15:20;;;;;;;37.83;17.65;;;;;;;20.78;90.72;101157.59;5083967;28;20579;-69
2022/08/17 03:17:46;;;;;;;33.88;17.15;;;;;;;20.91;90.05;101152.22;5084297;28;20036;-67
2022/08/17 03:20:12;;;;;;;35.22;17.80;;;;;;;21.04;89.71;101158.38;5084108;28;20031;-67
2022/08/17 03:22:41;;;;;;;30.63;17.88;;;;;;;20.95;90.41;101157.25;5083930;28;20499;-67
2022/08/17 03:25:08;;;;;;;37.10;17.05;;;;;;;21.01;90.39;101165.81;5085421;28;20024;-68
2022/08/17 03:27:35;;;;;;;30.33;17.00;;;;;;;20.95;90.58;101153.72;5083541;28;20050;-67
2022/08/17 03:30:00;;;;;;;30.20;17.40;;;;;;;21.13;89.74;101156.00;5084985;28;20103;-68
2022/08/17 03:32:26;;;;;;;31.65;18.05;;;;;;;21.12;89.78;101155.16;5084762;28;20725;-69
2022/08/17 03:34:56;;;;;;;32.50;17.15;;;;;;;21.16;89.92;101155.78;5084065;28;20113;-68
2022/08/17 03:37:22;;;;;;;30.58;18.17;;;;;;;21.08;90.12;101148.31;5085086;28;20039;-66
2022/08/17 03:39:47;;;;;;;24.58;17.45;;;;;;;21.12;90.13;101152.47;5083232;28;20141;-65
2022/08/17 03:42:15;;;;;;;32.90;19.13;;;;;;;21.06;90.47;101156.47;5084643;28;20610;-63
2022/08/17 03:44:41;;;;;;;33.58;18.75;;;;;;;21.07;91.11;101157.34;5065564;28;20057;-63
2022/08/17 03:58:03;;;;;;;27.25;17.40;;;;;;;21.24;90.49;101144.47;5083682;28;20039;-69
2022/08/17 04:00:28;;;;;;;29.20;18.58;;;;;;;21.28;90.20;101145.97;5083889;28;20032;-70
2022/08/17 04:02:53;;;;;;;27.83;18.17;;;;;;;21.21;90.76;101146.44;5082737;28;20493;-65
2022/08/17 04:05:19;;;;;;;33.25;18.92;;;;;;;21.07;91.26;101143.94;5084098;28;20056;-71
2022/08/17 04:07:45;;;;;;;28.70;17.67;;;;;;;21.11;91.09;101147.22;5083673;28;20035;-72
2022/08/17 04:10:10;;;;;;;31.85;19.42;;;;;;;21.11;91.73;101150.78;5083576;28;20102;-70
2022/08/17 04:13:02;;;;;;;26.20;16.67;;;;;;;21.19;91.51;101153.72;5083298;28;20103;-69
2022/08/17 04:15:28;;;;;;;28.75;19.75;;;;;;;21.09;93.06;101150.00;5060239;28;20036;-70
2022/08/17 04:17:54;;;;;;;23.85;18.55;;;;;;;21.13;92.48;101143.47;5062849;28;20074;-67
2022/08/17 04:20:21;;;;;;;38.75;23.20;;;;;;;21.02;93.57;101127.34;5064217;28;20021;-69
2022/08/17 04:23:01;;;;;;;38.33;24.90;;;;;;;20.82;94.99;101130.47;5063335;28;20020;-71
2022/08/17 04:25:27;;;;;;;36.28;25.17;;;;;;;20.84;94.90;101123.16;5063146;28;20025;-69
2022/08/17 04:27:53;;;;;;;45.40;27.55;;;;;;;20.91;94.91;101117.41;5064022;28;20033;-72
2022/08/17 04:30:19;;;;;;;33.75;25.15;;;;;;;20.96;94.21;101109.91;5063838;28;20036;-70
2022/08/17 04:32:52;;;;;;;44.70;27.73;;;;;;;20.92;94.63;101106.56;5062417;28;20111;-67
2022/08/17 04:35:20;;;;;;;43.38;29.17;;;;;;;20.84;95.47;101106.28;5063710;28;20021;-64
2022/08/17 04:37:46;;;;;;;36.95;28.45;;;;;;;20.76;95.68;101111.31;5062918;28;20370;-62
2022/08/17 04:43:16;;;;;;;42.42;28.98;;;;;;;20.77;96.34;101107.69;5063688;28;20055;-60
2022/08/17 04:45:44;;;;;;;48.55;30.17;;;;;;;20.71;96.71;101104.47;5063370;28;20032;-60
2022/08/17 04:48:10;;;;;;;42.13;28.63;;;;;;;20.63;97.23;101093.50;5062643;28;20079;-61
2022/08/17 04:50:39;;;;;;;42.03;29.15;;;;;;;20.59;97.29;101092.00;5063633;28;20055;-60
2022/08/17 04:53:04;;;;;;;43.67;28.13;;;;;;;20.56;96.56;101087.72;5062417;28;20024;-59
2022/08/17 04:55:30;;;;;;;36.58;27.05;;;;;;;20.49;96.61;101088.25;5063025;28;20475;-61
2022/08/17 04:57:55;;;;;;;34.38;26.63;;;;;;;20.64;95.92;101075.59;5063422;28;20036;-61
2022/08/17 05:00:21;;;;;;;35.33;26.73;;;;;;;20.63;95.81;101081.91;5063176;28;20108;-60
2022/08/17 05:02:49;;;;;;;38.60;25.25;;;;;;;20.69;95.62;101087.69;5060885;28;20032;-61
2022/08/17 05:05:30;;;;;;;33.03;26.13;;;;;;;20.65;95.95;101085.34;5062112;28;20021;-60
2022/08/17 05:07:57;;;;;;;36.80;26.30;;;;;;;20.48;96.57;101079.41;5065275;28;20066;-62
2022/08/17 05:10:25;;;;;;;31.90;26.40;;;;;;;20.75;95.58;101078.34;5067436;28;20021;-62
2022/08/17 05:13:02;;;;;;;36.42;25.92;;;;;;;20.90;95.37;101081.75;5067662;28;20024;-61
2022/08/17 05:15:28;;;;;;;32.78;24.48;;;;;;;20.93;94.95;101088.69;5085982;28;20482;-61
2022/08/17 05:17:53;;;;;;;36.25;26.58;;;;;;;20.92;95.69;101092.34;5086400;28;20032;-62
2022/08/17 05:20:19;;;;;;;32.30;25.75;;;;;;;20.94;95.45;101101.97;5087365;28;20067;-63
2022/08/17 05:22:56;;;;;;;31.33;23.63;;;;;;;20.91;95.46;101090.63;5082776;28;20462;-62
2022/08/17 05:25:29;;;;;;;33.45;24.10;;;;;;;20.93;95.07;101094.06;5078082;28;20051;-62
2022/08/17 05:27:54;;;;;;;28.70;24.10;;;;;;;20.98;94.92;101091.03;5077604;28;20055;-61
2022/08/17 05:30:20;;;;;;;34.13;25.27;;;;;;;20.87;96.04;101089.97;5077604;28;20736;-60
2022/08/17 05:33:00;;;;;;;35.05;24.92;;;;;;;20.87;95.93;101099.81;5068865;28;20025;-61
2022/08/17 05:35:28;;;;;;;32.63;25.38;;;;;;;20.96;95.49;101089.31;5066015;28;20024;-62
2022/08/17 05:37:54;;;;;;;33.55;24.35;;;;;;;20.92;94.78;101095.88;5066940;28;20059;-58
2022/08/17 05:40:20;;;;;;;28.65;23.40;;;;;;;20.94;94.20;101101.97;5066766;28;20033;-61
2022/08/17 05:42:46;;;;;;;28.33;22.02;;;;;;;21.08;93.91;101100.09;5075160;28;20039;-61
2022/08/17 05:45:12;;;;;;;26.70;22.35;;;;;;;21.02;93.95;101105.91;5076416;28;20016;-60
2022/08/17 05:47:38;;;;;;;32.22;22.80;;;;;;;21.07;93.88;101109.09;5042174;28;20038;-61
2022/08/17 05:50:05;;;;;;;29.52;21.05;;;;;;;21.10;93.75;101110.69;5083035;28;20434;-60
2022/08/17 05:52:39;;;;;;;26.80;21.83;;;;;;;21.21;92.88;101118.78;5075479;28;20020;-61
2022/08/17 05:55:27;;;;;;;29.45;22.13;;;;;;;21.25;92.88;101125.59;5058817;28;20398;-62
2022/08/17 05:58:15;;;;;;;31.13;23.48;;;;;;;21.16;93.52;101135.19;5066909;28;20028;-62
2022/08/17 06:00:49;;;;;;;29.75;23.13;;;;;;;21.23;93.71;101132.94;5027397;28;20033;-62
2022/08/17 06:03:21;;;;;;;29.63;24.20;;;;;;;21.30;93.18;101138.66;5082082;28;20032;-63
2022/08/17 06:06:00;;;;;;;32.15;23.75;;;;;;;21.38;92.88;101140.78;5065177;28;20028;-62
2022/08/17 06:08:33;;;;;;;32.13;23.98;;;;;;;21.40;93.22;101142.34;5066642;28;20429;-63
2022/08/17 06:11:27;;;;;;;30.70;25.80;;;;;;;21.38;93.81;101148.81;5048759;28;20020;-62
2022/08/17 06:14:21;;;;;;;34.45;26.42;;;;;;;21.41;94.16;101146.78;5066891;28;20499;-63
2022/08/17 06:16:50;;;;;;;34.85;27.13;;;;;;;21.38;94.40;101136.28;5055740;28;20023;-63
2022/08/17 06:19:39;;;;;;;37.63;27.08;;;;;;;21.43;94.45;101143.97;5049560;28;20497;-63
2022/08/17 06:22:05;;;;;;;34.95;26.50;;;;;;;21.37;94.71;101145.25;5057294;28;20120;-61
2022/08/17 06:24:40;;;;;;;35.95;26.95;;;;;;;21.41;94.24;101154.81;5076054;28;20103;-62
2022/08/17 06:27:35;;;;;;;36.20;27.25;;;;;;;21.51;94.42;101146.91;5075681;28;20099;-62
2022/08/17 06:30:20;;;;;;;35.75;26.52;;;;;;;21.67;94.25;101145.75;5076711;28;20024;-62
2022/08/17 06:32:47;;;;;;;28.92;23.70;;;;;;;22.04;91.99;101142.94;5075617;28;20033;-61
2022/08/17 06:35:37;;;;;;;28.42;22.67;;;;;;;22.08;91.80;101143.53;5057853;28;20069;-62
2022/08/17 06:38:18;;;;;;;24.52;18.38;;;;;;;22.32;90.21;101151.50;5062203;28;20491;-63
2022/08/17 06:40:54;;;;;;;22.63;19.92;;;;;;;22.27;89.58;101160.88;5062115;28;20060;-63
2022/08/17 06:43:23;;;;;;;23.55;18.55;;;;;;;22.05;90.42;101158.06;5072641;28;20012;-61
2022/08/17 06:46:11;;;;;;;26.95;20.25;;;;;;;22.03;91.20;101164.53;5057092;28;20024;-62
2022/08/17 06:48:43;;;;;;;21.80;18.83;;;;;;;22.20;90.56;101160.50;5072091;28;20117;-63
2022/08/17 06:51:27;;;;;;;26.48;19.75;;;;;;;22.14;90.54;101172.56;5047263;28;20048;-61
2022/08/17 06:54:18;;;;;;;22.45;19.88;;;;;;;22.11;90.29;101175.50;5075980;28;20027;-62
2022/08/17 06:57:14;;;;;;;27.75;19.75;;;;;;;22.04;90.74;101193.06;5066167;28;20386;-65
2022/08/17 06:59:47;;;;;;;25.88;20.75;;;;;;;21.99;91.27;101196.09;5053817;28;20040;-66
2022/08/17 07:02:19;;;;;;;26.67;21.13;;;;;;;21.88;91.53;101188.84;5072464;28;20140;-62
2022/08/17 07:04:44;;;;;;;31.02;23.98;;;;;;;21.76;92.21;101182.59;5073453;28;20020;-64
2022/08/17 07:09:57;;;;;;;28.08;22.75;;;;;;;21.35;94.05;101190.09;5075103;28;20050;-64
2022/08/17 07:12:36;;;;;;;26.67;21.70;;;;;;;21.53;93.76;101190.56;5075446;28;20016;-64
2022/08/17 07:15:18;;;;;;;25.65;20.45;;;;;;;21.59;92.60;101197.28;5056337;28;20036;-64
2022/08/17 07:17:45;;;;;;;25.80;19.38;;;;;;;21.64;93.36;101200.44;5054724;28;20051;-66
2022/08/17 07:20:14;;;;;;;25.52;22.13;;;;;;;21.60;92.91;101198.97;5074313;28;20539;-66
2022/08/17 07:22:56;;;;;;;27.05;21.75;;;;;;;21.55;93.01;101196.66;5056233;28;20131;-67
2022/08/17 07:25:21;;;;;;;27.98;21.48;;;;;;;21.60;92.78;101193.63;5074149;28;20512;-68
2022/08/17 07:27:52;;;;;;;27.10;22.02;;;;;;;21.68;91.85;101204.63;5072254;28;20024;-66
2022/08/17 07:30:32;;;;;;;26.38;22.27;;;;;;;21.83;91.44;101199.94;5073988;28;20107;-64
2022/08/17 07:33:12;;;;;;;27.02;21.33;;;;;;;22.00;90.92;101210.38;5072739;28;20033;-66
2022/08/17 07:35:39;;;;;;;26.05;20.92;;;;;;;22.05;89.90;101202.81;5071629;28;20024;-68
2022/08/17 07:38:04;;;;;;;26.90;20.70;;;;;;;22.18;89.07;101198.19;5074104;28;20476;-68
2022/08/17 07:40:33;;;;;;;29.37;21.10;;;;;;;22.24;89.75;101207.59;5073741;28;20029;-68
2022/08/17 07:43:06;;;;;;;28.92;21.65;;;;;;;22.19;90.31;101204.44;5054156;28;20276;-68
2022/08/17 07:48:23;;;;;;;19.83;17.27;;;;;;;22.65;87.25;101201.78;5074505;28;20048;-66
2022/08/17 07:50:52;;;;;;;23.73;19.38;;;;;;;22.79;87.86;101214.13;5058053;28;20087;-67
2022/08/17 07:53:23;;;;;;;22.92;18.13;;;;;;;22.94;85.58;101212.88;5074504;28;20034;-65
2022/08/17 07:55:49;;;;;;;21.55;17.70;;;;;;;22.93;86.40;101213.84;5083488;28;20069;-65
2022/08/17 07:58:20;;;;;;;18.92;16.90;;;;;;;22.90;86.74;101224.00;5083201;28;20024;-65
2022/08/17 08:01:03;;;;;;;19.23;16.85;;;;;;;22.95;86.81;101222.66;5074949;28;20032;-65
2022/08/17 08:03:30;;;;;;;19.63;16.25;;;;;;;23.25;85.36;101228.31;5082453;28;20016;-65
2022/08/17 08:06:00;;;;;;;18.67;16.50;;;;;;;23.29;85.74;101235.16;5064969;28;20028;-66
2022/08/17 08:08:32;;;;;;;19.45;15.73;;;;;;;23.47;85.33;101232.81;5061626;28;20245;-64
2022/08/17 08:11:07;;;;;;;21.58;17.27;;;;;;;23.51;85.30;101228.00;5075827;28;20536;-66
2022/08/17 08:13:34;;;;;;;18.83;16.77;;;;;;;23.81;85.00;101223.72;5067623;28;20040;-65
2022/08/17 08:16:18;;;;;;;15.82;14.10;;;;;;;23.98;83.22;101227.69;5039732;28;20025;-66
2022/08/17 08:18:47;;;;;;;17.70;15.77;;;;;;;23.86;83.38;101231.41;5078607;28;20742;-67
2022/08/17 08:21:27;;;;;;;17.92;13.77;;;;;;;23.96;83.57;101228.81;5064412;28;20020;-67
2022/08/17 08:24:14;;;;;;;18.95;15.60;;;;;;;23.95;82.61;101229.78;5061256;28;20067;-68
2022/08/17 08:26:49;;;;;;;20.60;15.05;;;;;;;23.93;82.61;101235.28;5080005;28;20013;-65
2022/08/17 08:29:41;;;;;;;24.73;15.85;;;;;;;23.99;83.03;101228.56;5063029;28;20520;-65
2022/08/17 08:32:35;;;;;;;22.17;16.65;;;;;;;23.74;84.25;101227.94;5048521;28;20027;-66
2022/08/17 08:35:13;;;;;;;17.75;15.75;;;;;;;23.65;83.55;101243.00;5082371;28;20107;-65
2022/08/17 08:38:11;;;;;;;17.50;15.70;;;;;;;23.47;83.39;101248.94;5082682;28;20111;-65
2022/08/17 08:40:48;;;;;;;20.02;16.08;;;;;;;23.38;84.45;101252.38;5076214;28;20106;-66
2022/08/17 08:43:38;;;;;;;21.50;16.17;;;;;;;23.59;83.26;101247.06;5067123;28;20390;-65
2022/08/17 08:46:18;;;;;;;15.15;12.30;;;;;;;23.69;83.16;101249.00;5069666;28;20035;-64
2022/08/17 08:49:06;;;;;;;15.75;14.02;;;;;;;23.93;81.68;101251.44;5076573;28;20060;-63
2022/08/17 08:51:32;;;;;;;16.15;14.20;;;;;;;23.83;81.54;101247.81;5075776;28;20079;-62
2022/08/17 08:54:16;;;;;;;15.50;13.82;;;;;;;23.88;82.08;101251.00;5074646;28;20278;-63
2022/08/17 08:57:14;;;;;;;16.55;14.85;;;;;;;23.71;82.28;101245.19;5076137;28;20035;-63
2022/08/17 08:59:47;;;;;;;16.05;13.65;;;;;;;23.64;82.15;101254.75;5063358;28;20490;-64
2022/08/17 09:02:32;;;;;;;15.10;13.18;;;;;;;23.40;83.47;101257.63;5058407;28;20099;-65
2022/08/17 09:05:52;;;;;;;14.23;12.73;;;;;;;23.34;82.86;101261.66;5058868;28;20028;-63
2022/08/17 09:08:24;;;;;;;12.45;11.23;;;;;;;23.33;82.72;101258.09;4965412;28;20576;-64
2022/08/17 09:11:05;;;;;;;12.75;11.43;;;;;;;23.16;83.59;101266.69;4968131;28;20034;-64
2022/08/17 09:14:01;;;;;;;14.60;11.45;;;;;;;23.21;83.22;101269.88;5024141;28;20316;-65
2022/08/17 09:16:37;;;;;;;11.82;10.48;;;;;;;23.21;83.94;101265.34;5050613;28;20032;-65
2022/08/17 09:19:09;;;;;;;12.10;10.57;;;;;;;23.06;83.68;101275.50;5056194;28;20720;-65
2022/08/17 09:21:40;;;;;;;10.43;9.13;;;;;;;22.91;83.85;101277.59;5073443;28;20031;-65
2022/08/17 09:24:11;;;;;;;10.15;8.77;;;;;;;22.85;84.17;101281.63;5055773;28;20005;-64
2022/08/17 09:26:47;;;;;;;10.07;8.85;;;;;;;23.12;83.08;101292.13;5074437;28;20028;-64
2022/08/17 09:29:15;;;;;;;9.00;8.18;;;;;;;22.92;83.88;101292.75;5076910;28;20031;-63
2022/08/17 09:32:02;;;;;;;9.30;8.40;;;;;;;23.05;83.36;101303.38;5075449;28;20024;-63
2022/08/17 09:34:33;;;;;;;9.45;8.55;;;;;;;23.04;83.44;101301.66;5058290;28;20493;-65
2022/08/17 09:37:19;;;;;;;9.07;7.60;;;;;;;23.00;82.28;101294.84;5077231;28;20319;-64
2022/08/17 09:39:52;;;;;;;8.25;7.45;;;;;;;23.16;81.70;101294.44;5037206;28;20431;-65
2022/08/17 09:42:30;;;;;;;11.05;7.65;;;;;;;23.31;81.49;101292.34;5075011;28;20353;-65
2022/08/17 09:45:32;;;;;;;7.90;7.20;;;;;;;23.34;80.35;101288.53;5056520;28;20490;-64
2022/08/17 09:48:05;;;;;;;12.70;7.63;;;;;;;23.42;79.75;101288.78;5075957;28;20047;-63
2022/08/17 09:50:44;;;;;;;8.23;7.20;;;;;;;23.53;79.25;101287.91;5057849;28;20027;-65
2022/08/17 09:53:10;;;;;;;7.78;6.90;;;;;;;23.52;78.90;101288.91;5062220;28;20459;-66
2022/08/17 09:56:03;;;;;;;7.13;6.43;;;;;;;23.54;79.32;101291.47;5074902;28;20024;-66
2022/08/17 09:58:53;;;;;;;6.72;6.03;;;;;;;23.63;78.04;101295.22;5057662;28;20050;-65
2022/08/17 10:01:38;;;;;;;8.38;6.82;;;;;;;23.47;78.07;101289.28;5058035;28;20023;-64
2022/08/17 10:04:22;;;;;;;8.65;5.68;;;;;;;23.52;78.61;101288.03;5057040;28;20028;-64
2022/08/17 10:07:00;;;;;;;7.53;6.20;;;;;;;23.54;77.96;101291.47;5076132;28;20019;-64
2022/08/17 10:09:38;;;;;;;6.95;5.95;;;;;;;23.43;78.01;101278.91;5073181;28;20029;-62
2022/08/17 10:12:23;;;;;;;7.00;5.60;;;;;;;23.41;77.68;101279.03;5058905;28;20025;-65
2022/08/17 10:15:13;;;;;;;9.02;5.88;;;;;;;23.47;77.84;101281.22;5074264;28;20047;-63
2022/08/17 10:17:44;;;;;;;6.30;5.80;;;;;;;23.42;78.12;101277.19;5074693;28;20463;-65
2022/08/17 10:20:18;;;;;;;10.85;6.07;;;;;;;23.71;77.38;101276.59;5074220;28;20025;-64
2022/08/17 10:28:27;;;;;;;6.90;5.95;;;;;;;24.00;76.52;101280.53;5060881;28;20088;-69
2022/08/17 10:30:55;;;;;;;7.15;6.50;;;;;;;23.92;76.79;101289.25;5059020;28;20021;-63
2022/08/17 10:33:26;;;;;;;7.37;6.47;;;;;;;23.96;77.41;101293.41;5074787;28;20021;-65
2022/08/17 10:35:55;;;;;;;9.68;7.30;;;;;;;24.18;77.13;101295.16;5075943;28;20292;-65
2022/08/17 10:38:37;;;;;;;9.48;7.30;;;;;;;24.25;77.17;101297.31;5075808;28;20487;-63
2022/08/17 10:41:14;;;;;;;9.02;8.10;;;;;;;24.25;77.92;101300.00;5058604;28;20481;-64
2022/08/17 10:44:01;;;;;;;10.27;9.18;;;;;;;24.19;78.90;101307.63;5074598;28;20068;-65
2022/08/17 10:46:32;;;;;;;13.25;9.45;;;;;;;24.02;79.19;101305.47;5057507;28;20675;-63
2022/08/17 10:49:15;;;;;;;12.23;9.20;;;;;;;23.97;79.33;101305.88;5075237;28;20545;-65
2022/08/17 10:51:41;;;;;;;11.18;9.25;;;;;;;23.72;80.47;101308.75;5075655;28;20024;-63
2022/08/17 10:54:34;;;;;;;12.50;9.63;;;;;;;23.66;80.85;101305.75;5072400;28;20089;-63
2022/08/17 10:56:59;;;;;;;11.63;10.38;;;;;;;23.65;80.34;101304.88;5069233;28;20654;-62
2022/08/17 10:59:34;;;;;;;13.38;9.48;;;;;;;23.83;80.19;101304.31;5055894;28;20019;-63
2022/08/17 11:02:08;;;;;;;12.82;10.85;;;;;;;23.89;80.14;101300.25;5074944;28;20080;-63
2022/08/17 11:04:59;;;;;;;12.27;10.20;;;;;;;23.98;79.69;101305.75;5074384;28;20055;-64
2022/08/17 11:07:47;;;;;;;11.10;9.93;;;;;;;24.06;79.26;101304.22;5075795;28;20020;-63
2022/08/17 11:10:34;;;;;;;13.03;10.77;;;;;;;24.04;79.35;101308.88;5062362;28;20039;-65
2022/08/17 11:13:07;;;;;;;11.75;10.50;;;;;;;23.88;79.24;101312.88;5075649;28;20032;-64
2022/08/17 11:15:46;;;;;;;12.15;10.55;;;;;;;23.76;80.33;101312.06;5055334;28;20036;-62
2022/08/17 11:18:28;;;;;;;11.13;9.85;;;;;;;23.65;81.38;101325.53;5074079;28;20066;-62
2022/08/17 11:21:09;;;;;;;13.52;10.88;;;;;;;23.59;80.70;101321.50;5059145;28;20071;-62
2022/08/17 11:23:49;;;;;;;17.27;11.15;;;;;;;23.51;81.20;101327.50;5083659;28;20389;-65
2022/08/17 11:26:34;;;;;;;14.65;12.10;;;;;;;23.68;81.14;101319.91;5084156;28;20051;-70
2022/08/17 11:29:04;;;;;;;30.52;13.50;;;;;;;23.62;81.97;101326.66;5081316;28;20058;-66
2022/08/17 11:31:34;;;;;;;14.57;11.57;;;;;;;23.59;81.89;101333.13;5082922;28;20119;-65
2022/08/17 11:34:03;;;;;;;15.95;11.07;;;;;;;23.51;82.23;101340.97;5083654;28;20016;-66
2022/08/17 11:36:44;;;;;;;12.77;10.75;;;;;;;23.60;81.83;101344.75;5083163;28;20499;-64
2022/08/17 11:39:28;;;;;;;15.50;12.35;;;;;;;23.47;82.94;101348.44;5084042;28;20104;-64
2022/08/17 11:41:59;;;;;;;15.15;12.13;;;;;;;23.45;82.33;101350.38;5084143;28;20024;-65
2022/08/17 11:44:36;;;;;;;13.32;11.93;;;;;;;23.32;82.80;101347.81;5083236;28;20097;-66
2022/08/17 11:53:04;;;;;;;17.00;14.18;;;;;;;22.93;85.17;101344.63;5080968;28;20587;-65
2022/08/17 11:55:33;;;;;;;17.70;13.85;;;;;;;23.11;85.11;101336.94;5048459;28;20026;-68
2022/08/17 11:58:17;;;;;;;16.63;14.68;;;;;;;23.08;85.43;101332.69;5083633;28;20036;-66
2022/08/17 12:00:45;;;;;;;17.73;12.75;;;;;;;23.11;84.84;101328.88;5083455;28;20130;-66
2022/08/17 12:03:32;;;;;;;16.20;14.43;;;;;;;22.82;83.82;101324.00;5082537;28;20024;-67
2022/08/17 12:06:19;;;;;;;16.38;14.70;;;;;;;22.66;85.14;101317.16;5065324;28;20118;-65
2022/08/17 12:08:50;;;;;;;21.60;15.90;;;;;;;22.59;85.55;101315.91;5082833;28;20028;-65